Time;durP1;ratioP1;P1;durP2;ratioP2;P2;SDS_P1;SDS_P2;PMS_P1;PMS_P2;Temp;Humidity;BMP_temperature;BMP_pressure;BME280_temperature;BME280_humidity;BME280_pressure;Samples;Min_cycle;Max_cycle;Signal;HPM_P1;HPM_P2
2021/06/23 00:00:32;;;;;;;14.15;9.55;;;15.70;99.10;;;;;;5066436;28;20029;-85
2021/06/23 00:02:58;;;;;;;17.65;10.38;;;15.70;99.40;;;;;;5068127;28;20031;-85
2021/06/23 00:05:24;;;;;;;17.95;10.23;;;15.70;99.40;;;;;;5067913;28;20131;-85
2021/06/23 00:07:51;;;;;;;16.45;9.40;;;15.80;99.40;;;;;;5067061;28;20108;-85
2021/06/23 00:10:17;;;;;;;14.63;8.88;;;15.80;99.60;;;;;;5067552;28;20017;-85
2021/06/23 00:12:43;;;;;;;16.58;9.85;;;15.80;99.50;;;;;;5066780;28;20436;-85
2021/06/23 00:15:12;;;;;;;13.50;9.45;;;15.70;99.10;;;;;;5066639;28;20021;-85
2021/06/23 00:17:37;;;;;;;15.45;10.07;;;15.70;99.10;;;;;;5057510;28;20025;-85
2021/06/23 00:20:05;;;;;;;17.40;9.48;;;15.70;99.10;;;;;;5054544;28;20447;-85
2021/06/23 00:22:30;;;;;;;18.35;10.70;;;15.70;99.20;;;;;;5054584;28;20047;-85
2021/06/23 00:24:56;;;;;;;14.13;8.88;;;15.60;99.10;;;;;;5054733;28;20478;-85
2021/06/23 00:27:22;;;;;;;12.90;9.38;;;15.60;99.10;;;;;;5053231;28;20079;-85
2021/06/23 00:29:48;;;;;;;17.23;9.98;;;15.60;99.30;;;;;;5053740;28;20025;-85
2021/06/23 00:32:20;;;;;;;16.92;9.18;;;15.60;99.30;;;;;;5053164;28;20056;-85
2021/06/23 00:34:46;;;;;;;18.70;9.68;;;15.60;99.30;;;;;;5054500;28;20036;-85
2021/06/23 00:37:12;;;;;;;14.65;9.35;;;15.60;99.30;;;;;;5059838;28;20036;-84
2021/06/23 00:39:38;;;;;;;16.92;9.93;;;15.60;99.00;;;;;;5066833;28;20021;-83
2021/06/23 00:42:07;;;;;;;13.07;8.88;;;15.60;99.20;;;;;;5062136;28;20025;-83
2021/06/23 00:44:33;;;;;;;20.75;9.52;;;15.60;99.30;;;;;;5053019;28;20119;-84
2021/06/23 00:46:59;;;;;;;14.82;8.95;;;15.60;99.30;;;;;;5054158;28;20032;-84
2021/06/23 00:49:30;;;;;;;15.75;9.60;;;15.60;99.40;;;;;;5053525;28;20032;-85
2021/06/23 00:51:56;;;;;;;15.63;8.38;;;15.70;99.20;;;;;;5054130;28;20471;-85
2021/06/23 00:54:22;;;;;;;16.35;8.80;;;15.70;99.10;;;;;;5054189;28;20025;-85
2021/06/23 00:56:48;;;;;;;14.88;8.60;;;15.70;99.20;;;;;;5052662;28;20033;-85
2021/06/23 00:59:14;;;;;;;15.13;9.38;;;15.70;99.00;;;;;;5053621;28;20029;-85
2021/06/23 01:01:42;;;;;;;14.77;8.60;;;15.70;99.00;;;;;;5052682;28;20496;-85
2021/06/23 01:04:08;;;;;;;13.33;8.47;;;15.60;98.90;;;;;;5052658;28;20155;-85
2021/06/23 01:06:34;;;;;;;11.25;8.35;;;15.60;98.80;;;;;;5052392;28;20294;-86
2021/06/23 01:09:01;;;;;;;11.45;8.57;;;15.60;99.00;;;;;;5051922;28;20021;-85
2021/06/23 01:11:28;;;;;;;13.45;8.32;;;15.70;99.30;;;;;;5053779;28;20021;-86
2021/06/23 01:14:05;;;;;;;16.42;8.70;;;15.60;98.60;;;;;;5052312;28;20029;-85
2021/06/23 01:16:34;;;;;;;17.83;8.73;;;15.60;98.80;;;;;;5052310;28;20020;-86
2021/06/23 01:19:05;;;;;;;15.00;8.30;;;15.50;98.70;;;;;;5051797;28;20052;-85
2021/06/23 01:21:31;;;;;;;16.95;8.73;;;15.60;98.90;;;;;;5052289;28;20029;-85
2021/06/23 01:23:57;;;;;;;13.07;7.88;;;15.60;99.00;;;;;;5053404;28;20051;-85
2021/06/23 01:26:23;;;;;;;12.35;8.50;;;15.60;98.90;;;;;;5053338;28;20025;-85
2021/06/23 01:28:49;;;;;;;16.88;8.98;;;15.60;98.90;;;;;;5052101;28;20025;-85
2021/06/23 01:31:16;;;;;;;15.68;8.55;;;15.50;98.50;;;;;;5051874;28;20070;-85
2021/06/23 01:33:43;;;;;;;19.42;8.73;;;15.50;98.60;;;;;;5052081;28;20048;-84
2021/06/23 01:36:09;;;;;;;12.68;7.72;;;15.50;98.60;;;;;;5053139;28;20029;-85
2021/06/23 01:38:34;;;;;;;19.27;9.02;;;15.50;99.20;;;;;;5052080;28;20427;-83
2021/06/23 01:41:00;;;;;;;17.75;9.32;;;15.40;99.00;;;;;;5051513;28;20074;-83
2021/06/23 01:43:26;;;;;;;16.23;8.73;;;15.40;98.90;;;;;;5051830;28;20486;-82
2021/06/23 01:45:52;;;;;;;15.27;7.97;;;15.40;98.80;;;;;;5051661;28;20028;-83
2021/06/23 01:48:24;;;;;;;14.82;8.57;;;15.40;98.80;;;;;;5051855;28;20171;-83
2021/06/23 01:50:52;;;;;;;20.02;9.05;;;15.40;98.90;;;;;;5051147;28;20072;-83
2021/06/23 01:53:18;;;;;;;18.85;8.68;;;15.40;99.00;;;;;;5051692;28;20048;-84
2021/06/23 01:55:43;;;;;;;12.25;8.00;;;15.40;98.70;;;;;;5051612;28;20032;-83
2021/06/23 01:58:11;;;;;;;15.90;8.10;;;15.40;98.60;;;;;;5052825;28;20021;-83
2021/06/23 02:01:05;;;;;;;15.23;8.23;;;15.40;98.70;;;;;;5051150;28;20135;-83
2021/06/23 02:03:57;;;;;;;16.65;8.40;;;15.40;98.70;;;;;;5052625;28;20599;-83
2021/06/23 02:06:48;;;;;;;16.48;8.98;;;15.40;98.90;;;;;;5052430;28;20481;-85
2021/06/23 02:09:45;;;;;;;15.93;8.93;;;15.40;99.10;;;;;;5050802;28;20512;-85
2021/06/23 02:12:26;;;;;;;21.30;10.27;;;15.40;99.00;;;;;;5052451;28;20025;-84
2021/06/23 02:14:56;;;;;;;15.75;8.50;;;15.40;98.70;;;;;;5052480;28;20028;-85
2021/06/23 02:17:23;;;;;;;17.92;9.05;;;15.40;98.60;;;;;;5050413;28;20021;-85
2021/06/23 02:19:51;;;;;;;19.55;10.07;;;15.40;98.70;;;;;;5049437;28;20111;-85
2021/06/23 02:22:23;;;;;;;17.67;9.45;;;15.30;99.10;;;;;;5052207;28;20037;-85
2021/06/23 02:25:07;;;;;;;17.30;9.70;;;15.30;98.90;;;;;;5051136;28;20465;-86
2021/06/23 02:27:33;;;;;;;16.55;9.07;;;15.30;98.90;;;;;;5052157;28;20413;-86
2021/06/23 02:30:00;;;;;;;17.70;9.00;;;15.30;98.90;;;;;;5050562;28;20021;-84
2021/06/23 02:32:28;;;;;;;14.25;8.15;;;15.30;98.80;;;;;;5050934;28;20032;-85
2021/06/23 02:34:56;;;;;;;17.25;8.20;;;15.40;98.90;;;;;;5051159;28;20044;-86
2021/06/23 02:37:23;;;;;;;14.48;8.27;;;15.40;98.90;;;;;;5050818;28;20033;-85
2021/06/23 02:39:49;;;;;;;13.55;8.00;;;15.40;98.80;;;;;;5050130;28;20385;-86
2021/06/23 02:42:15;;;;;;;20.52;9.43;;;15.40;99.00;;;;;;5051043;28;20067;-85
2021/06/23 02:44:41;;;;;;;12.73;8.07;;;15.30;98.60;;;;;;5050707;28;20028;-85
2021/06/23 02:47:08;;;;;;;14.55;8.52;;;15.30;98.70;;;;;;5050706;28;20031;-85
2021/06/23 02:49:34;;;;;;;16.63;8.57;;;15.30;98.40;;;;;;5050117;28;20493;-85
2021/06/23 02:52:01;;;;;;;15.68;9.23;;;15.20;98.70;;;;;;5052106;28;20047;-85
2021/06/23 02:54:27;;;;;;;15.38;8.63;;;15.20;98.50;;;;;;5052005;28;20161;-85
2021/06/23 02:56:54;;;;;;;18.38;8.70;;;15.20;98.60;;;;;;5050494;28;20112;-86
2021/06/23 02:59:20;;;;;;;17.13;9.20;;;15.20;98.70;;;;;;5050207;28;20075;-83
2021/06/23 03:01:47;;;;;;;18.23;9.23;;;15.20;98.90;;;;;;5050574;28;20017;-83
2021/06/23 03:04:13;;;;;;;13.27;8.95;;;15.20;99.00;;;;;;5050717;28;20324;-83
2021/06/23 03:06:39;;;;;;;15.00;8.50;;;15.20;98.60;;;;;;5050380;28;20029;-83
2021/06/23 03:09:05;;;;;;;15.60;8.30;;;15.30;98.60;;;;;;5049976;28;20424;-83
2021/06/23 03:11:35;;;;;;;14.40;7.70;;;15.30;98.80;;;;;;5050477;28;20025;-82
2021/06/23 03:14:01;;;;;;;15.05;8.85;;;15.20;99.20;;;;;;5050529;28;20055;-83
2021/06/23 03:16:27;;;;;;;22.73;9.02;;;15.30;98.90;;;;;;5051563;28;20048;-83
2021/06/23 03:18:53;;;;;;;15.45;8.93;;;15.30;98.80;;;;;;5050008;28;20028;-82
2021/06/23 03:21:20;;;;;;;15.85;9.40;;;15.20;98.40;;;;;;5050347;28;20028;-82
2021/06/23 03:23:47;;;;;;;16.25;8.73;;;15.20;99.00;;;;;;5051674;28;20047;-83
2021/06/23 03:26:13;;;;;;;17.60;8.80;;;15.20;98.80;;;;;;5051537;28;20053;-83
2021/06/23 03:28:39;;;;;;;16.50;9.00;;;15.20;99.00;;;;;;5051686;28;20060;-82
2021/06/23 03:31:05;;;;;;;14.90;9.35;;;15.20;99.00;;;;;;5049647;28;20136;-83
2021/06/23 03:33:30;;;;;;;16.52;9.20;;;15.20;98.90;;;;;;5051560;28;20533;-83
2021/06/23 03:35:56;;;;;;;17.20;9.77;;;15.20;98.90;;;;;;5050156;28;20112;-83
2021/06/23 03:38:22;;;;;;;16.70;9.38;;;15.10;99.00;;;;;;5051756;28;20524;-83
2021/06/23 03:40:47;;;;;;;15.40;8.73;;;15.20;99.00;;;;;;5049713;28;20108;-83
2021/06/23 03:43:13;;;;;;;14.38;8.75;;;15.20;98.80;;;;;;5050150;28;20486;-83
2021/06/23 03:45:39;;;;;;;17.77;9.00;;;15.20;98.80;;;;;;5050013;28;20029;-83
2021/06/23 03:48:05;;;;;;;14.10;8.32;;;15.20;98.90;;;;;;5050388;28;20151;-83
2021/06/23 03:50:32;;;;;;;13.77;8.35;;;15.30;98.90;;;;;;5049447;28;20482;-83
2021/06/23 03:52:58;;;;;;;18.63;9.02;;;15.20;98.90;;;;;;5052733;28;20188;-83
2021/06/23 03:55:27;;;;;;;15.90;8.90;;;15.20;98.70;;;;;;5053867;28;20119;-83
2021/06/23 03:57:54;;;;;;;15.40;8.80;;;15.20;98.70;;;;;;5055178;28;20104;-83
2021/06/23 04:00:22;;;;;;;17.58;9.77;;;15.20;98.80;;;;;;5054528;28;20067;-82
2021/06/23 04:02:48;;;;;;;19.40;9.15;;;15.20;99.00;;;;;;5053729;28;20394;-82
2021/06/23 04:05:14;;;;;;;15.88;8.93;;;15.30;98.80;;;;;;5053632;28;20409;-82
2021/06/23 04:07:40;;;;;;;16.33;9.80;;;15.30;98.80;;;;;;5055281;28;20033;-83
2021/06/23 04:10:07;;;;;;;16.98;9.23;;;15.30;98.80;;;;;;5053030;28;20115;-83
2021/06/23 04:12:33;;;;;;;15.77;9.43;;;15.30;98.60;;;;;;5054894;28;20036;-83
2021/06/23 04:14:59;;;;;;;22.13;9.40;;;15.30;98.70;;;;;;5054751;28;20052;-83
2021/06/23 04:17:24;;;;;;;17.55;8.48;;;15.20;98.40;;;;;;5053332;28;20604;-83
2021/06/23 04:19:50;;;;;;;17.25;9.30;;;15.20;98.50;;;;;;5053210;28;20024;-83
2021/06/23 04:22:16;;;;;;;16.55;9.00;;;15.20;98.60;;;;;;5054801;28;20025;-83
2021/06/23 04:24:42;;;;;;;16.23;8.40;;;15.20;98.70;;;;;;5053304;28;20032;-83
2021/06/23 04:27:08;;;;;;;17.65;9.13;;;15.20;98.80;;;;;;5053290;28;20029;-83
2021/06/23 04:29:34;;;;;;;16.55;9.68;;;15.20;98.60;;;;;;5052586;28;20115;-83
2021/06/23 04:31:59;;;;;;;14.82;9.38;;;15.20;98.60;;;;;;5052979;28;20024;-83
2021/06/23 04:34:25;;;;;;;16.85;8.68;;;15.20;98.70;;;;;;5054445;28;20485;-84
2021/06/23 04:36:51;;;;;;;18.02;8.15;;;15.30;98.70;;;;;;5053200;28;20029;-85
2021/06/23 04:39:16;;;;;;;14.85;7.88;;;15.30;98.70;;;;;;5052542;28;20112;-84
2021/06/23 04:41:42;;;;;;;16.80;8.65;;;15.30;98.50;;;;;;5052951;28;20025;-86
2021/06/23 04:44:08;;;;;;;13.02;8.35;;;15.30;98.50;;;;;;5053158;28;20025;-85
2021/06/23 04:46:34;;;;;;;16.33;8.60;;;15.30;98.60;;;;;;5052846;28;20033;-85
2021/06/23 04:49:00;;;;;;;17.30;9.30;;;15.30;98.60;;;;;;5052383;28;20047;-84
2021/06/23 04:51:26;;;;;;;19.08;9.00;;;15.30;98.60;;;;;;5052933;28;20031;-85
2021/06/23 04:53:52;;;;;;;16.63;9.00;;;15.30;98.50;;;;;;5053035;28;20021;-84
2021/06/23 04:56:17;;;;;;;14.18;9.10;;;15.30;98.70;;;;;;5052864;28;20052;-84
2021/06/23 04:58:43;;;;;;;19.58;9.32;;;15.30;98.40;;;;;;5056458;28;20033;-84
2021/06/23 05:01:09;;;;;;;13.60;9.02;;;15.30;98.80;;;;;;5055675;28;20025;-85
2021/06/23 05:03:34;;;;;;;17.08;8.55;;;15.40;98.50;;;;;;5054618;28;20036;-84
2021/06/23 05:06:01;;;;;;;20.17;9.13;;;15.40;98.60;;;;;;5054560;28;20040;-84
2021/06/23 05:08:27;;;;;;;19.25;8.60;;;15.40;98.30;;;;;;5056542;28;20101;-85
2021/06/23 05:10:54;;;;;;;18.38;9.00;;;15.40;98.40;;;;;;5054021;28;20063;-85
2021/06/23 05:13:20;;;;;;;18.90;9.20;;;15.40;98.50;;;;;;5055509;28;20036;-85
2021/06/23 05:15:46;;;;;;;16.15;9.10;;;15.40;98.40;;;;;;5053782;28;20087;-84
2021/06/23 05:18:12;;;;;;;15.50;8.45;;;15.40;98.50;;;;;;5053825;28;20025;-85
2021/06/23 05:20:38;;;;;;;17.27;9.30;;;15.40;98.20;;;;;;5052911;28;20027;-83
2021/06/23 05:23:04;;;;;;;17.05;9.65;;;15.40;98.20;;;;;;5053621;28;20108;-82
2021/06/23 05:25:30;;;;;;;18.75;9.40;;;15.40;98.40;;;;;;5053508;28;20032;-82
2021/06/23 05:27:55;;;;;;;18.98;9.38;;;15.40;98.10;;;;;;5052039;28;20032;-82
2021/06/23 05:30:21;;;;;;;14.68;8.63;;;15.40;98.00;;;;;;5051736;28;20021;-85
2021/06/23 05:32:47;;;;;;;13.35;8.43;;;15.40;97.90;;;;;;5053495;28;20017;-85
2021/06/23 05:35:13;;;;;;;16.85;8.77;;;15.40;98.00;;;;;;5053734;28;20036;-82
2021/06/23 05:37:39;;;;;;;15.32;8.50;;;15.50;98.10;;;;;;5052258;28;20028;-83
2021/06/23 05:40:06;;;;;;;18.85;8.50;;;15.50;98.00;;;;;;5053574;28;20025;-85
2021/06/23 05:42:32;;;;;;;15.13;8.20;;;15.50;97.90;;;;;;5053120;28;20032;-85
2021/06/23 05:44:58;;;;;;;16.25;7.78;;;15.50;97.90;;;;;;5052013;28;20111;-85
2021/06/23 05:47:24;;;;;;;15.45;8.45;;;15.60;98.00;;;;;;5051765;28;20036;-85
2021/06/23 05:49:49;;;;;;;15.30;8.45;;;15.60;98.20;;;;;;5051152;28;20017;-85
2021/06/23 05:52:15;;;;;;;18.20;8.75;;;15.60;98.20;;;;;;5051590;28;20033;-86
2021/06/23 05:54:40;;;;;;;17.55;9.00;;;15.50;97.70;;;;;;5052294;28;20028;-85
2021/06/23 05:57:06;;;;;;;16.98;8.60;;;15.50;97.90;;;;;;5052442;28;20470;-84
2021/06/23 05:59:32;;;;;;;16.98;8.63;;;15.50;97.90;;;;;;5052462;28;20021;-84
2021/06/23 06:01:58;;;;;;;22.02;11.13;;;15.50;97.80;;;;;;5052616;28;20025;-85
2021/06/23 06:04:23;;;;;;;22.35;11.07;;;15.60;97.90;;;;;;5051566;28;20077;-85
2021/06/23 06:06:49;;;;;;;14.07;9.20;;;15.60;97.90;;;;;;5051229;28;20032;-85
2021/06/23 06:09:15;;;;;;;16.98;8.00;;;15.60;98.00;;;;;;5052079;28;20021;-85
2021/06/23 06:11:41;;;;;;;14.77;8.77;;;15.60;98.10;;;;;;5052567;28;20021;-85
2021/06/23 06:14:07;;;;;;;20.77;8.40;;;15.70;98.10;;;;;;5050958;28;20021;-85
2021/06/23 06:16:33;;;;;;;16.65;8.80;;;15.70;97.80;;;;;;5051212;28;20025;-85
2021/06/23 06:18:58;;;;;;;16.50;8.10;;;15.70;97.70;;;;;;5050710;28;20032;-85
2021/06/23 06:21:24;;;;;;;13.75;8.32;;;15.70;97.60;;;;;;5051074;28;20055;-85
2021/06/23 06:23:51;;;;;;;16.50;8.07;;;15.70;97.50;;;;;;5051073;28;20111;-85
2021/06/23 06:26:17;;;;;;;18.42;8.63;;;15.70;97.50;;;;;;5050914;28;20025;-86
2021/06/23 06:28:43;;;;;;;13.82;7.50;;;15.70;97.50;;;;;;5051229;28;20024;-84
2021/06/23 06:31:09;;;;;;;13.57;7.38;;;15.80;97.60;;;;;;5050450;28;20029;-85
2021/06/23 06:33:35;;;;;;;16.73;8.23;;;15.80;97.40;;;;;;5051124;28;20396;-85
2021/06/23 06:36:01;;;;;;;13.43;7.75;;;15.80;97.30;;;;;;5052258;28;20083;-85
2021/06/23 06:38:26;;;;;;;16.98;8.73;;;15.80;97.30;;;;;;5050579;28;20504;-86
2021/06/23 06:40:52;;;;;;;17.13;8.43;;;15.80;97.40;;;;;;5051627;28;20021;-85
2021/06/23 06:43:18;;;;;;;14.93;7.60;;;15.80;97.20;;;;;;5050783;28;20028;-85
2021/06/23 06:45:45;;;;;;;20.65;8.00;;;15.80;97.20;;;;;;5050680;28;20037;-85
2021/06/23 06:48:11;;;;;;;15.70;7.75;;;15.90;97.10;;;;;;5052009;28;20017;-85
2021/06/23 06:50:37;;;;;;;10.20;6.65;;;15.90;96.90;;;;;;5051474;28;20024;-86
2021/06/23 06:53:03;;;;;;;17.77;8.05;;;15.90;97.10;;;;;;5050689;28;20021;-86
2021/06/23 06:55:29;;;;;;;18.55;7.70;;;15.90;97.10;;;;;;5051959;28;20469;-86
2021/06/23 06:57:56;;;;;;;15.57;8.02;;;15.90;96.90;;;;;;5050889;28;20079;-85
2021/06/23 07:00:23;;;;;;;15.73;8.00;;;15.90;97.30;;;;;;5050102;28;20048;-85
2021/06/23 07:02:49;;;;;;;20.63;8.63;;;15.90;97.40;;;;;;5050469;28;20036;-85
2021/06/23 07:05:15;;;;;;;17.98;8.57;;;15.90;97.20;;;;;;5051631;28;20033;-85
2021/06/23 07:07:41;;;;;;;15.82;7.95;;;15.90;97.00;;;;;;5050423;28;20021;-85
2021/06/23 07:10:07;;;;;;;14.57;6.72;;;15.90;96.80;;;;;;5050048;28;20028;-85
2021/06/23 07:12:34;;;;;;;14.80;7.05;;;16.00;97.00;;;;;;5050679;28;20025;-85
2021/06/23 07:15:00;;;;;;;18.05;8.25;;;16.00;96.60;;;;;;5050634;28;20633;-85
2021/06/23 07:17:26;;;;;;;15.65;6.97;;;16.00;96.60;;;;;;5051832;28;20237;-85
2021/06/23 07:19:51;;;;;;;15.68;6.78;;;16.10;96.60;;;;;;5050188;28;20429;-85
2021/06/23 07:22:17;;;;;;;14.70;7.03;;;16.10;96.70;;;;;;5050332;28;20470;-85
2021/06/23 07:24:42;;;;;;;17.60;7.30;;;16.10;96.60;;;;;;5051494;28;20032;-85
2021/06/23 07:27:08;;;;;;;14.25;6.88;;;16.10;96.90;;;;;;5053067;28;20049;-85
2021/06/23 07:29:34;;;;;;;14.52;6.40;;;16.10;96.50;;;;;;5054061;28;20486;-84
2021/06/23 07:32:03;;;;;;;15.85;7.35;;;16.10;96.60;;;;;;5056050;28;20025;-82
2021/06/23 07:37:03;;;;;;;14.77;7.25;;;16.10;96.20;;;;;;5056210;28;19908;-83
2021/06/23 07:39:28;;;;;;;16.70;6.32;;;16.10;96.40;;;;;;5055423;28;20024;-86
2021/06/23 07:41:54;;;;;;;16.98;6.97;;;16.20;96.40;;;;;;5054171;28;20709;-85
2021/06/23 07:45:04;;;;;;;17.75;7.35;;;16.20;96.40;;;;;;5055512;28;20029;-85
2021/06/23 07:47:19;;;;;;;15.75;6.97;;;16.20;96.50;;;;;;5054761;28;20045;-85
2021/06/23 07:49:45;;;;;;;15.15;7.18;;;16.10;96.20;;;;;;5053407;28;20037;-85
2021/06/23 07:54:50;;;;;;;18.58;7.72;;;16.20;96.10;;;;;;5055417;28;20036;-84
2021/06/23 08:10:48;;;;;;;20.27;6.82;;;16.40;96.70;;;;;;5054716;28;20067;-85
2021/06/23 08:13:15;;;;;;;17.02;7.30;;;16.50;96.10;;;;;;5053673;28;20029;-85
2021/06/23 08:15:43;;;;;;;13.38;7.70;;;16.50;95.50;;;;;;5053824;28;20099;-85
2021/06/23 08:18:09;;;;;;;15.23;7.35;;;16.50;95.60;;;;;;5053638;28;20387;-85
2021/06/23 08:20:36;;;;;;;13.63;6.90;;;16.50;95.60;;;;;;5052923;28;20040;-85
2021/06/23 08:23:02;;;;;;;13.45;6.97;;;16.50;95.80;;;;;;5053418;28;20028;-85
2021/06/23 08:25:28;;;;;;;11.35;6.15;;;16.50;95.90;;;;;;5053299;28;20029;-85
2021/06/23 08:27:54;;;;;;;13.48;6.45;;;16.60;96.00;;;;;;5053313;28;20473;-84
2021/06/23 08:30:20;;;;;;;14.90;7.10;;;16.60;96.00;;;;;;5052738;28;20561;-85
2021/06/23 08:32:47;;;;;;;16.63;7.10;;;16.70;95.50;;;;;;5054415;28;20029;-85
2021/06/23 08:35:13;;;;;;;12.50;6.13;;;16.70;95.60;;;;;;5054536;28;20048;-85
2021/06/23 08:37:40;;;;;;;14.65;6.13;;;16.70;95.50;;;;;;5052955;28;20413;-85
2021/06/23 08:40:07;;;;;;;13.05;6.60;;;16.70;95.50;;;;;;5053826;28;20056;-85
2021/06/23 08:42:33;;;;;;;9.75;5.90;;;16.80;95.30;;;;;;5052995;28;20032;-86
2021/06/23 08:44:59;;;;;;;15.77;6.30;;;16.90;95.60;;;;;;5053068;28;20033;-85
2021/06/23 08:47:25;;;;;;;15.90;6.75;;;16.90;95.30;;;;;;5054059;28;20048;-85
2021/06/23 08:49:51;;;;;;;16.67;7.30;;;17.00;95.20;;;;;;5052326;28;20044;-85
2021/06/23 08:52:17;;;;;;;18.13;6.20;;;17.00;94.90;;;;;;5054077;28;20029;-85
2021/06/23 08:54:45;;;;;;;12.50;6.97;;;17.00;95.10;;;;;;5054156;28;20466;-85
2021/06/23 08:57:11;;;;;;;15.18;6.78;;;17.00;95.10;;;;;;5052808;28;20025;-85
2021/06/23 08:59:41;;;;;;;16.50;6.32;;;17.10;95.20;;;;;;5053453;28;20105;-85
2021/06/23 09:02:14;;;;;;;14.15;7.05;;;17.10;95.10;;;;;;5052575;28;20385;-85
2021/06/23 09:04:57;;;;;;;15.77;7.80;;;17.10;94.80;;;;;;5052558;28;20025;-85
2021/06/23 09:07:40;;;;;;;15.15;6.95;;;17.10;94.30;;;;;;5052533;28;20404;-85
2021/06/23 09:10:23;;;;;;;11.27;5.90;;;17.10;94.70;;;;;;5052043;28;20443;-85
2021/06/23 09:13:01;;;;;;;13.60;6.65;;;17.10;95.10;;;;;;5052437;28;20497;-84
2021/06/23 09:15:57;;;;;;;11.80;6.17;;;17.10;94.90;;;;;;5053509;28;20405;-85
2021/06/23 09:18:27;;;;;;;11.38;6.13;;;17.10;95.30;;;;;;5051519;28;20268;-86
2021/06/23 09:20:58;;;;;;;16.95;7.40;;;17.10;95.10;;;;;;5051670;28;20029;-84
2021/06/23 09:23:46;;;;;;;17.73;7.80;;;17.10;94.80;;;;;;5053515;28;20048;-86
2021/06/23 09:26:19;;;;;;;16.23;8.10;;;17.20;94.40;;;;;;5052006;28;20025;-86
2021/06/23 09:29:03;;;;;;;12.65;7.00;;;17.10;93.70;;;;;;5052187;28;20029;-85
2021/06/23 09:32:03;;;;;;;12.25;8.43;;;17.10;93.80;;;;;;5051591;28;20021;-85
2021/06/23 09:34:44;;;;;;;12.43;7.40;;;17.10;93.70;;;;;;5031195;28;20422;-86
2021/06/23 09:37:23;;;;;;;13.95;7.85;;;17.10;93.70;;;;;;5051965;28;20033;-86
2021/06/23 09:39:49;;;;;;;12.73;7.85;;;17.10;93.90;;;;;;5052544;28;20108;-85
2021/06/23 09:42:15;;;;;;;14.57;7.25;;;17.10;94.20;;;;;;5051782;28;20430;-85
2021/06/23 09:45:02;;;;;;;14.20;6.65;;;17.10;94.40;;;;;;5051764;28;20037;-85
2021/06/23 09:47:30;;;;;;;12.05;6.22;;;17.10;94.40;;;;;;5051809;28;20035;-85
2021/06/23 09:49:55;;;;;;;13.02;5.70;;;17.20;94.70;;;;;;5050184;28;20021;-84
2021/06/23 09:52:21;;;;;;;13.27;6.63;;;17.20;94.70;;;;;;5051665;28;20070;-85
2021/06/23 09:55:00;;;;;;;14.73;6.00;;;17.20;94.60;;;;;;5052911;28;20021;-85
2021/06/23 09:57:26;;;;;;;12.75;6.00;;;17.30;94.20;;;;;;5051591;28;20021;-85
2021/06/23 09:59:56;;;;;;;14.05;6.93;;;17.30;94.00;;;;;;5051008;28;20028;-85
2021/06/23 10:02:22;;;;;;;9.25;5.00;;;17.30;93.90;;;;;;5051823;28;20021;-85
2021/06/23 10:04:48;;;;;;;14.32;6.18;;;17.30;94.00;;;;;;5052623;28;20032;-85
2021/06/23 10:07:37;;;;;;;12.05;5.90;;;17.30;94.20;;;;;;5052744;28;20386;-85
2021/06/23 10:10:03;;;;;;;9.45;5.40;;;17.40;94.30;;;;;;5050954;28;20024;-85
2021/06/23 10:12:29;;;;;;;13.57;5.70;;;17.40;94.50;;;;;;5051271;28;20029;-85
2021/06/23 10:14:55;;;;;;;14.13;4.90;;;17.40;94.20;;;;;;5051263;28;20368;-85
2021/06/23 10:17:23;;;;;;;12.02;5.40;;;17.50;94.40;;;;;;5052367;28;20099;-85
2021/06/23 10:19:49;;;;;;;13.38;5.63;;;17.50;94.50;;;;;;5050753;28;20021;-85
2021/06/23 10:22:16;;;;;;;11.35;5.32;;;17.50;94.10;;;;;;5052294;28;20017;-85
2021/06/23 10:24:43;;;;;;;10.30;5.53;;;17.60;94.30;;;;;;5051175;28;20029;-84
2021/06/23 10:27:11;;;;;;;12.27;6.25;;;17.60;93.80;;;;;;5051173;28;20112;-85
2021/06/23 10:29:38;;;;;;;13.30;6.70;;;17.70;93.60;;;;;;5050479;28;20023;-84
2021/06/23 10:32:06;;;;;;;16.48;6.25;;;17.70;93.00;;;;;;5052267;28;20021;-85
2021/06/23 10:34:32;;;;;;;10.07;5.87;;;17.70;92.80;;;;;;5051040;28;20420;-85
2021/06/23 10:36:59;;;;;;;17.95;6.72;;;17.70;92.90;;;;;;5050883;28;20262;-86
2021/06/23 10:39:30;;;;;;;15.20;6.13;;;17.80;92.30;;;;;;5050370;28;20119;-85
2021/06/23 10:42:03;;;;;;;9.95;6.28;;;17.80;92.30;;;;;;5050801;28;20048;-86
2021/06/23 10:44:40;;;;;;;14.65;6.97;;;17.90;92.50;;;;;;5050692;28;20027;-85
2021/06/23 10:47:08;;;;;;;11.10;5.70;;;17.90;92.60;;;;;;5050703;28;20111;-86
2021/06/23 10:49:51;;;;;;;16.15;7.95;;;17.90;93.00;;;;;;5051458;28;20027;-83
2021/06/23 10:52:22;;;;;;;13.50;6.70;;;18.00;92.50;;;;;;5051970;28;20386;-83
2021/06/23 10:54:56;;;;;;;10.90;5.90;;;17.90;92.50;;;;;;5050512;28;20032;-83
2021/06/23 10:57:29;;;;;;;11.85;5.22;;;17.90;92.80;;;;;;5050653;28;20154;-82
2021/06/23 11:00:21;;;;;;;13.00;5.80;;;17.90;92.60;;;;;;5050064;28;20032;-83
2021/06/23 11:02:49;;;;;;;9.73;4.53;;;18.00;92.40;;;;;;5051799;28;20021;-83
2021/06/23 11:05:17;;;;;;;9.77;5.60;;;18.00;92.60;;;;;;5051819;28;20021;-83
2021/06/23 11:07:55;;;;;;;12.43;5.70;;;18.10;92.20;;;;;;5051807;28;20045;-83
2021/06/23 11:10:28;;;;;;;11.43;5.78;;;18.10;92.20;;;;;;5049942;28;20059;-83
2021/06/23 11:12:56;;;;;;;15.88;6.95;;;18.20;92.30;;;;;;5051763;28;20234;-82
2021/06/23 11:15:30;;;;;;;11.07;6.45;;;18.20;92.30;;;;;;5051817;28;20100;-83
2021/06/23 11:18:17;;;;;;;12.35;5.57;;;18.20;92.20;;;;;;5050478;28;20075;-83
2021/06/23 11:20:53;;;;;;;17.17;6.50;;;18.20;92.50;;;;;;5050570;28;20056;-83
2021/06/23 11:23:50;;;;;;;11.07;5.32;;;18.20;92.20;;;;;;5050491;28;20025;-83
2021/06/23 11:26:20;;;;;;;9.65;5.38;;;18.20;92.20;;;;;;5050170;28;20029;-83
2021/06/23 11:28:47;;;;;;;15.48;6.22;;;18.20;92.30;;;;;;5050146;28;20021;-82
2021/06/23 11:31:13;;;;;;;13.13;6.07;;;18.20;92.00;;;;;;5051370;28;20021;-83
2021/06/23 11:33:39;;;;;;;17.15;6.15;;;18.20;92.10;;;;;;5050290;28;20530;-86
2021/06/23 11:36:07;;;;;;;12.43;6.10;;;18.20;92.10;;;;;;5050207;28;20047;-85
2021/06/23 11:38:34;;;;;;;11.85;5.72;;;18.30;92.30;;;;;;5050553;28;20432;-85
2021/06/23 11:41:01;;;;;;;15.43;6.00;;;18.30;92.00;;;;;;5050920;28;20079;-85
2021/06/23 11:43:27;;;;;;;12.02;4.93;;;18.30;91.80;;;;;;5051698;28;20116;-86
2021/06/23 11:45:53;;;;;;;9.40;4.82;;;18.40;91.80;;;;;;5051357;28;20100;-85
2021/06/23 11:48:19;;;;;;;10.45;5.20;;;18.40;91.70;;;;;;5050328;28;20032;-86
2021/06/23 11:50:46;;;;;;;12.98;5.22;;;18.40;91.90;;;;;;5050664;28;20033;-82
2021/06/23 11:53:14;;;;;;;14.18;5.35;;;18.30;91.70;;;;;;5051401;28;20025;-83
2021/06/23 11:55:40;;;;;;;14.07;4.93;;;18.40;92.00;;;;;;5051325;28;20024;-83
2021/06/23 11:58:06;;;;;;;10.40;5.00;;;18.40;92.00;;;;;;5049963;28;20029;-83
2021/06/23 12:00:34;;;;;;;8.63;4.30;;;18.50;92.10;;;;;;5049506;28;20025;-83
2021/06/23 12:03:01;;;;;;;10.40;4.80;;;18.50;92.00;;;;;;5049922;28;20127;-83
2021/06/23 12:05:27;;;;;;;18.50;6.40;;;18.60;91.90;;;;;;5051031;28;20315;-83
2021/06/23 12:07:54;;;;;;;11.95;5.30;;;18.70;91.60;;;;;;5051210;28;20025;-83
2021/06/23 12:10:21;;;;;;;15.65;5.10;;;18.70;91.60;;;;;;5050528;28;20017;-83
2021/06/23 12:12:48;;;;;;;15.68;6.10;;;18.80;92.10;;;;;;5050491;28;20512;-83
2021/06/23 12:15:16;;;;;;;12.38;5.60;;;18.80;91.40;;;;;;5053494;28;20021;-83
2021/06/23 12:17:42;;;;;;;16.73;5.60;;;18.80;91.40;;;;;;5054681;28;20044;-83
2021/06/23 12:20:10;;;;;;;13.68;5.93;;;18.80;91.40;;;;;;5052621;28;20063;-82
2021/06/23 12:22:38;;;;;;;13.57;6.53;;;18.80;91.50;;;;;;5053340;28;20040;-84
2021/06/23 12:25:05;;;;;;;11.05;6.20;;;18.90;91.60;;;;;;5053356;28;20040;-83
2021/06/23 12:27:31;;;;;;;15.18;5.30;;;18.90;91.60;;;;;;5053359;28;20033;-82
2021/06/23 12:29:57;;;;;;;13.57;6.30;;;18.90;91.60;;;;;;5052838;28;20035;-83
2021/06/23 12:32:22;;;;;;;11.35;6.20;;;18.90;91.60;;;;;;5053290;28;20505;-83
2021/06/23 12:34:49;;;;;;;15.00;7.28;;;18.90;91.50;;;;;;5054530;28;20021;-82
2021/06/23 12:37:15;;;;;;;12.48;6.68;;;18.90;91.80;;;;;;5053086;28;20435;-83
2021/06/23 12:39:41;;;;;;;10.48;7.10;;;18.90;91.90;;;;;;5052526;28;20033;-83
2021/06/23 12:42:07;;;;;;;15.48;8.73;;;18.90;91.70;;;;;;5054303;28;20087;-83
2021/06/23 12:44:32;;;;;;;12.68;7.70;;;18.90;91.90;;;;;;5053265;28;20071;-83
2021/06/23 12:46:58;;;;;;;16.25;7.47;;;18.90;92.40;;;;;;5054156;28;20028;-83
2021/06/23 12:49:24;;;;;;;12.43;6.45;;;18.80;92.10;;;;;;5052284;28;20029;-83
2021/06/23 12:51:51;;;;;;;14.13;7.03;;;18.90;92.20;;;;;;5054198;28;20029;-82
2021/06/23 12:54:17;;;;;;;13.75;7.22;;;18.90;91.90;;;;;;5054124;28;20535;-83
2021/06/23 12:56:42;;;;;;;13.32;9.65;;;19.00;91.90;;;;;;5052946;28;20033;-83
2021/06/23 12:59:08;;;;;;;15.20;8.13;;;19.10;91.30;;;;;;5053475;28;20481;-82